Time;durP1;ratioP1;P1;durP2;ratioP2;P2;SDS_P1;SDS_P2;PMS_P1;PMS_P2;Temp;Humidity;BMP_temperature;BMP_pressure;BME280_temperature;BME280_humidity;BME280_pressure;Samples;Min_cycle;Max_cycle;Signal;HPM_P1;HPM_P2
2024/02/25 00:04:33;;;;;;;4.40;3.58;;;23.60;44.10;;;;;;10352045;28;20053;-59
2024/02/25 00:09:34;;;;;;;3.83;3.45;;;23.50;44.20;;;;;;10360005;28;20046;-50
2024/02/25 00:14:36;;;;;;;4.57;3.42;;;23.40;44.30;;;;;;10363280;28;20062;-53
2024/02/25 00:19:39;;;;;;;4.65;3.60;;;23.30;44.40;;;;;;10354356;28;20042;-53
2024/02/25 00:24:40;;;;;;;4.20;3.38;;;23.40;44.30;;;;;;10369155;28;20042;-53
2024/02/25 00:29:42;;;;;;;3.95;3.40;;;23.40;44.20;;;;;;10365388;28;20056;-51
2024/02/25 00:34:45;;;;;;;3.70;3.30;;;23.40;44.10;;;;;;10366479;28;20050;-53
2024/02/25 00:39:47;;;;;;;3.60;3.30;;;23.30;44.20;;;;;;10364687;28;20038;-53
2024/02/25 00:44:49;;;;;;;3.45;3.15;;;23.20;44.20;;;;;;10357746;28;20100;-55
2024/02/25 00:49:52;;;;;;;4.53;3.10;;;23.30;44.10;;;;;;10359437;28;20082;-51
2024/02/25 00:54:54;;;;;;;3.80;2.83;;;23.10;44.20;;;;;;10358534;28;20046;-53
2024/02/25 00:59:56;;;;;;;4.18;2.97;;;23.10;44.10;;;;;;10358562;28;20494;-51
2024/02/25 01:04:58;;;;;;;3.72;3.20;;;23.20;44.00;;;;;;10355904;28;20132;-51
2024/02/25 01:10:00;;;;;;;4.30;3.10;;;23.20;44.10;;;;;;10364563;28;20046;-57
2024/02/25 01:15:02;;;;;;;3.80;3.20;;;23.10;44.00;;;;;;10361044;28;20042;-54
2024/02/25 01:20:06;;;;;;;3.08;2.78;;;23.10;43.90;;;;;;10357886;28;20057;-52
2024/02/25 01:25:08;;;;;;;3.35;2.85;;;23.10;44.00;;;;;;10355632;28;20501;-53
2024/02/25 01:30:11;;;;;;;3.92;3.05;;;23.10;43.90;;;;;;10350532;28;20046;-53
2024/02/25 01:35:14;;;;;;;3.33;2.85;;;23.10;43.90;;;;;;10351362;28;20053;-53
2024/02/25 01:40:16;;;;;;;3.33;2.80;;;23.00;44.00;;;;;;10356997;28;20050;-57
2024/02/25 01:45:19;;;;;;;3.50;2.60;;;23.00;43.90;;;;;;10358590;28;20056;-52
2024/02/25 01:50:22;;;;;;;3.22;2.78;;;22.90;43.90;;;;;;10365209;28;20050;-54
2024/02/25 01:55:23;;;;;;;2.95;2.65;;;22.90;43.90;;;;;;10357992;28;20050;-52
2024/02/25 02:00:25;;;;;;;2.95;2.40;;;22.90;43.80;;;;;;10363108;28;20079;-54
2024/02/25 02:05:28;;;;;;;3.05;2.40;;;22.90;43.60;;;;;;10353762;28;20763;-51
2024/02/25 02:10:30;;;;;;;2.70;2.50;;;22.90;43.60;;;;;;10356679;28;20053;-51
2024/02/25 02:15:32;;;;;;;3.38;2.40;;;22.90;43.70;;;;;;10359253;28;20488;-60
2024/02/25 02:20:35;;;;;;;2.78;2.17;;;22.90;43.60;;;;;;10361093;28;20103;-56
2024/02/25 02:25:37;;;;;;;2.67;2.40;;;22.80;43.70;;;;;;10359068;28;20045;-57
2024/02/25 02:30:39;;;;;;;2.95;2.63;;;22.80;43.60;;;;;;10354357;28;20054;-52
2024/02/25 02:35:41;;;;;;;2.50;2.30;;;22.80;43.50;;;;;;10355864;28;20050;-52
2024/02/25 02:40:44;;;;;;;3.08;2.15;;;22.80;43.50;;;;;;10352399;28;20042;-54
2024/02/25 02:45:47;;;;;;;2.40;2.13;;;22.80;43.40;;;;;;10351964;28;20057;-50
2024/02/25 02:50:49;;;;;;;3.20;2.22;;;22.70;43.40;;;;;;10346444;28;20061;-55
2024/02/25 02:55:52;;;;;;;2.65;2.40;;;22.70;43.50;;;;;;10353569;28;20423;-58
2024/02/25 03:00:54;;;;;;;2.28;2.00;;;22.70;43.50;;;;;;10360419;28;20050;-54
2024/02/25 03:05:55;;;;;;;1.90;1.77;;;22.70;43.40;;;;;;10360949;28;20054;-57
2024/02/25 03:10:58;;;;;;;1.80;1.70;;;22.70;43.40;;;;;;10358349;28;20060;-51
2024/02/25 03:16:01;;;;;;;2.15;1.70;;;22.70;43.40;;;;;;10353759;28;20046;-55
2024/02/25 03:21:03;;;;;;;2.72;2.28;;;22.70;43.20;;;;;;10347973;28;20046;-51
2024/02/25 03:26:13;;;;;;;2.00;1.90;;;22.70;43.30;;;;;;10350613;28;20046;-51
2024/02/25 03:31:15;;;;;;;2.77;2.00;;;22.60;43.30;;;;;;10360122;28;20056;-51
2024/02/25 03:36:16;;;;;;;2.08;1.88;;;22.50;43.40;;;;;;10359465;28;20046;-55
2024/02/25 03:41:19;;;;;;;2.00;1.80;;;22.60;43.30;;;;;;10358694;28;20050;-51
2024/02/25 03:46:21;;;;;;;2.00;1.80;;;22.70;43.00;;;;;;10358799;28;20053;-57
2024/02/25 03:51:22;;;;;;;1.80;1.70;;;22.80;42.90;;;;;;10358844;28;20050;-51
2024/02/25 03:56:25;;;;;;;2.72;1.90;;;23.00;42.40;;;;;;10358962;28;20042;-53
2024/02/25 04:01:27;;;;;;;1.70;1.60;;;23.20;42.30;;;;;;10354798;28;20058;-53
2024/02/25 04:06:28;;;;;;;1.73;1.63;;;22.80;42.90;;;;;;10366677;28;20046;-55
2024/02/25 04:11:31;;;;;;;1.85;1.65;;;22.20;44.30;;;;;;10364180;28;20056;-56
2024/02/25 04:16:33;;;;;;;2.20;1.70;;;22.30;44.50;;;;;;10363319;28;20056;-53
2024/02/25 04:21:35;;;;;;;1.63;1.52;;;22.50;44.20;;;;;;10365760;28;20554;-52
2024/02/25 04:26:38;;;;;;;2.10;1.60;;;22.70;43.90;;;;;;10360471;28;20487;-54
2024/02/25 04:31:41;;;;;;;1.55;1.42;;;22.50;44.00;;;;;;10358612;28;20128;-52
2024/02/25 04:36:42;;;;;;;1.60;1.50;;;22.40;44.20;;;;;;10362452;28;20074;-54
2024/02/25 04:41:45;;;;;;;1.77;1.50;;;22.30;44.50;;;;;;10360109;28;20058;-58
2024/02/25 04:46:47;;;;;;;1.83;1.50;;;22.40;44.50;;;;;;10364049;28;20053;-58
2024/02/25 04:51:49;;;;;;;1.60;1.50;;;22.50;44.20;;;;;;10359873;28;20081;-57
2024/02/25 04:56:54;;;;;;;1.52;1.33;;;22.40;44.30;;;;;;10360688;28;20393;-57
2024/02/25 05:01:56;;;;;;;1.38;1.27;;;22.30;44.60;;;;;;10357144;28;20049;-58
2024/02/25 05:06:57;;;;;;;1.20;1.10;;;22.30;44.60;;;;;;10359469;28;20056;-57
2024/02/25 05:12:00;;;;;;;1.30;1.20;;;22.40;44.60;;;;;;10364206;28;20053;-55
2024/02/25 05:17:02;;;;;;;1.42;1.33;;;22.40;44.50;;;;;;10364392;28;20050;-55
2024/02/25 05:22:04;;;;;;;1.58;1.30;;;22.50;44.40;;;;;;10358054;28;20134;-58
2024/02/25 05:27:07;;;;;;;1.40;1.30;;;22.50;44.50;;;;;;10367155;28;20076;-58
2024/02/25 05:32:08;;;;;;;1.40;1.30;;;22.50;44.50;;;;;;10361948;28;20132;-58
2024/02/25 05:37:10;;;;;;;1.30;1.20;;;22.50;44.30;;;;;;10362008;28;20052;-58
2024/02/25 05:42:13;;;;;;;1.50;1.20;;;22.50;44.30;;;;;;10361940;28;20050;-58
2024/02/25 05:47:15;;;;;;;1.30;1.20;;;22.50;44.40;;;;;;10360516;28;20403;-58
2024/02/25 05:52:16;;;;;;;1.33;1.20;;;22.60;44.30;;;;;;10353535;28;20046;-56
2024/02/25 05:57:19;;;;;;;1.40;1.20;;;22.70;44.30;;;;;;10353630;28;20042;-52
2024/02/25 06:02:21;;;;;;;1.70;1.17;;;22.80;44.00;;;;;;10356615;28;20042;-56
2024/02/25 06:07:24;;;;;;;1.15;1.05;;;22.80;44.10;;;;;;10357514;28;20048;-51
2024/02/25 06:12:31;;;;;;;1.38;1.27;;;22.80;44.00;;;;;;10349959;28;20143;-54
2024/02/25 06:17:33;;;;;;;8.55;1.10;;;22.80;44.00;;;;;;10359022;28;20049;-54
2024/02/25 06:22:35;;;;;;;10.13;1.40;;;22.70;44.40;;;;;;10359224;28;20096;-53
2024/02/25 06:27:38;;;;;;;7.22;1.20;;;22.70;44.60;;;;;;10361223;28;20046;-52
2024/02/25 06:32:40;;;;;;;2.22;1.30;;;22.70;44.80;;;;;;10360160;28;20492;-53
2024/02/25 06:37:42;;;;;;;4.60;1.60;;;22.80;44.80;;;;;;10354180;28;20129;-52
2024/02/25 06:42:45;;;;;;;6.10;1.27;;;22.80;45.00;;;;;;10355901;28;20046;-53
2024/02/25 06:47:47;;;;;;;2.35;1.42;;;22.80;45.40;;;;;;10355524;28;21040;-52
2024/02/25 06:52:48;;;;;;;2.78;1.50;;;22.90;45.60;;;;;;10350942;28;20515;-50
2024/02/25 06:57:51;;;;;;;9.85;1.80;;;22.90;45.50;;;;;;10354479;28;20455;-51
2024/02/25 07:02:54;;;;;;;3.65;1.60;;;22.90;46.20;;;;;;10350991;28;20423;-54
2024/02/25 07:07:56;;;;;;;7.10;1.75;;;22.80;46.30;;;;;;10348155;28;20046;-55
2024/02/25 07:12:59;;;;;;;4.93;1.45;;;23.00;46.40;;;;;;10345298;28;20042;-57
2024/02/25 07:18:00;;;;;;;4.38;1.27;;;23.10;46.10;;;;;;10342062;28;20057;-57
2024/02/25 07:23:02;;;;;;;8.27;1.52;;;23.10;45.90;;;;;;10350216;28;20134;-50
2024/02/25 07:28:05;;;;;;;7.93;1.70;;;23.00;46.00;;;;;;10353905;28;20057;-59
2024/02/25 07:33:07;;;;;;;13.30;1.88;;;22.90;47.30;;;;;;10352680;28;20056;-52
2024/02/25 07:38:09;;;;;;;8.38;1.73;;;23.00;46.80;;;;;;10341863;28;20046;-53
2024/02/25 07:43:12;;;;;;;6.43;1.70;;;23.00;46.30;;;;;;10358235;28;20057;-49
2024/02/25 07:48:13;;;;;;;7.03;1.40;;;23.00;46.20;;;;;;10353710;28;20050;-52
2024/02/25 07:53:15;;;;;;;4.45;1.50;;;23.00;46.00;;;;;;10354043;28;20050;-49
2024/02/25 07:58:18;;;;;;;9.82;2.60;;;23.00;45.90;;;;;;10352325;28;20057;-49
2024/02/25 08:03:19;;;;;;;16.73;4.07;;;22.90;46.50;;;;;;10355523;28;20052;-48
2024/02/25 08:08:21;;;;;;;16.10;3.83;;;22.90;47.20;;;;;;10353350;28;20046;-48
2024/02/25 08:13:24;;;;;;;14.30;3.30;;;22.80;48.90;;;;;;10350041;28;20496;-49
2024/02/25 08:18:26;;;;;;;12.27;3.33;;;22.90;50.20;;;;;;10344725;28;20050;-49
2024/02/25 08:23:27;;;;;;;13.88;2.90;;;22.90;50.80;;;;;;10350706;28;20052;-51
2024/02/25 08:28:40;;;;;;;14.23;2.72;;;22.90;50.80;;;;;;10344077;28;20042;-54
2024/02/25 08:33:42;;;;;;;6.95;2.25;;;22.80;51.30;;;;;;10361615;28;20042;-50
2024/02/25 08:38:44;;;;;;;10.20;3.00;;;23.20;51.50;;;;;;10357118;28;20060;-49
2024/02/25 08:43:47;;;;;;;6.85;2.08;;;23.30;51.70;;;;;;10361301;28;20062;-53
2024/02/25 08:48:48;;;;;;;8.55;2.22;;;23.80;51.20;;;;;;10360395;28;20680;-49
2024/02/25 08:53:50;;;;;;;9.07;1.98;;;23.80;51.20;;;;;;10366393;28;20488;-51
2024/02/25 08:58:53;;;;;;;5.85;2.08;;;23.70;51.20;;;;;;10362550;28;20416;-50
2024/02/25 09:03:55;;;;;;;11.38;2.10;;;23.80;50.90;;;;;;10358855;28;20041;-51
2024/02/25 09:08:57;;;;;;;6.13;2.03;;;24.00;50.80;;;;;;10359530;28;20456;-49
2024/02/25 09:14:00;;;;;;;7.10;1.85;;;23.70;50.80;;;;;;10363074;28;20049;-48
2024/02/25 09:19:01;;;;;;;13.40;3.38;;;23.80;50.50;;;;;;10363434;28;20048;-52
2024/02/25 09:24:03;;;;;;;15.18;4.10;;;23.80;51.60;;;;;;10356676;28;20052;-51
2024/02/25 09:29:06;;;;;;;17.55;3.60;;;23.80;51.50;;;;;;10356652;28;20357;-50
2024/02/25 09:34:08;;;;;;;10.50;2.80;;;24.00;49.60;;;;;;10363963;28;20051;-53
2024/02/25 09:39:10;;;;;;;13.85;2.90;;;24.10;48.30;;;;;;10358915;28;20092;-53
2024/02/25 09:44:23;;;;;;;11.38;3.03;;;24.00;48.80;;;;;;10360805;28;20050;-48
2024/02/25 09:49:25;;;;;;;8.82;2.10;;;23.70;48.50;;;;;;10356522;28;20046;-50
2024/02/25 09:54:27;;;;;;;6.25;2.40;;;23.60;48.30;;;;;;10350744;28;20125;-51
2024/02/25 09:59:30;;;;;;;4.95;2.47;;;23.50;48.30;;;;;;10356507;28;20046;-53
2024/02/25 10:04:31;;;;;;;6.80;1.70;;;23.60;48.30;;;;;;10356493;28;20070;-48
2024/02/25 10:09:33;;;;;;;6.30;2.30;;;23.60;48.20;;;;;;10361889;28;20060;-53
2024/02/25 10:14:36;;;;;;;4.22;1.70;;;23.60;47.90;;;;;;10357272;28;20050;-48
2024/02/25 10:19:38;;;;;;;3.08;1.65;;;23.60;48.10;;;;;;10359438;28;20050;-49
2024/02/25 10:24:40;;;;;;;4.70;1.98;;;23.60;47.90;;;;;;10356385;28;20042;-48
2024/02/25 10:29:53;;;;;;;3.13;1.70;;;23.60;47.90;;;;;;10353331;28;20744;-49
2024/02/25 10:34:55;;;;;;;5.13;1.83;;;23.60;47.60;;;;;;10356537;28;20128;-50
2024/02/25 10:39:57;;;;;;;3.05;1.30;;;23.40;47.80;;;;;;10351748;28;20080;-49
2024/02/25 10:45:00;;;;;;;3.72;1.38;;;23.50;47.50;;;;;;10349315;28;20053;-49
2024/02/25 10:50:02;;;;;;;3.05;1.35;;;23.50;47.50;;;;;;10356625;28;20049;-50
2024/02/25 10:55:05;;;;;;;3.20;1.27;;;23.60;47.10;;;;;;10356791;28;20415;-48
2024/02/25 11:00:11;;;;;;;3.40;1.50;;;23.80;46.50;;;;;;10356005;28;20137;-48
2024/02/25 11:05:17;;;;;;;3.45;1.30;;;23.80;46.10;;;;;;10352053;28;20049;-49
2024/02/25 11:10:19;;;;;;;2.80;1.20;;;23.80;45.60;;;;;;10350236;28;20144;-49
2024/02/25 11:15:27;;;;;;;3.63;1.25;;;23.80;45.20;;;;;;10354053;28;20046;-49
2024/02/25 11:20:32;;;;;;;2.08;1.20;;;23.90;45.20;;;;;;10354184;28;20512;-49
2024/02/25 11:25:34;;;;;;;2.25;1.15;;;23.80;45.10;;;;;;10355121;28;20050;-49
2024/02/25 11:30:38;;;;;;;8.52;4.90;;;23.80;44.90;;;;;;10348425;28;20145;-50
2024/02/25 11:35:40;;;;;;;36.00;22.20;;;23.70;45.10;;;;;;10353480;28;20047;-48
2024/02/25 11:40:42;;;;;;;59.33;32.72;;;23.40;45.20;;;;;;10354863;28;20496;-50
2024/02/25 11:45:45;;;;;;;55.63;32.58;;;23.20;45.00;;;;;;10349530;28;20636;-48
2024/02/25 11:50:48;;;;;;;68.95;38.92;;;23.30;43.90;;;;;;10351221;28;20050;-48
2024/02/25 11:55:50;;;;;;;68.60;41.22;;;23.50;42.90;;;;;;10354245;28;20042;-48
2024/02/25 12:00:53;;;;;;;59.38;38.25;;;23.70;42.50;;;;;;10359357;28;20079;-53
2024/02/25 12:05:55;;;;;;;49.67;31.40;;;23.80;42.20;;;;;;10362453;28;20069;-49
2024/02/25 12:10:57;;;;;;;55.00;33.80;;;23.80;42.80;;;;;;10363743;28;20038;-50
2024/02/25 12:16:00;;;;;;;43.83;31.83;;;23.70;43.70;;;;;;10364125;28;20049;-48
2024/02/25 12:21:02;;;;;;;47.97;31.50;;;23.60;43.60;;;;;;10362194;28;20052;-46
2024/02/25 12:26:04;;;;;;;43.92;32.00;;;23.80;43.00;;;;;;10355527;28;20225;-49
2024/02/25 12:31:09;;;;;;;43.63;32.40;;;23.80;43.00;;;;;;10362942;28;20046;-47
2024/02/25 12:36:10;;;;;;;43.35;31.30;;;23.70;43.50;;;;;;10360921;28;20504;-47
2024/02/25 12:41:14;;;;;;;44.75;31.27;;;23.70;43.90;;;;;;10366348;28;20125;-46
2024/02/25 12:46:17;;;;;;;38.83;27.17;;;23.60;43.80;;;;;;10366175;28;20041;-46
2024/02/25 12:51:19;;;;;;;38.20;25.67;;;23.60;43.50;;;;;;10362325;28;20052;-49
2024/02/25 12:56:20;;;;;;;32.67;23.75;;;23.50;43.10;;;;;;10355608;28;20714;-51
2024/02/25 13:01:23;;;;;;;37.53;25.60;;;23.50;43.30;;;;;;10348799;28;20064;-47
2024/02/25 13:06:25;;;;;;;36.83;27.05;;;23.50;43.10;;;;;;10361528;28;20064;-48
2024/02/25 13:11:26;;;;;;;44.28;27.23;;;23.70;43.10;;;;;;10364734;28;20060;-46
2024/02/25 13:16:30;;;;;;;36.58;26.50;;;23.90;43.10;;;;;;10359473;28;20532;-48
2024/02/25 13:21:31;;;;;;;33.45;26.20;;;23.90;42.90;;;;;;10363650;28;20061;-48
2024/02/25 13:26:33;;;;;;;35.88;25.05;;;24.00;42.80;;;;;;10364837;28;20121;-48
2024/02/25 13:31:36;;;;;;;37.03;26.52;;;23.90;43.20;;;;;;10361476;28;20037;-46
2024/02/25 13:36:37;;;;;;;38.13;27.10;;;24.00;43.90;;;;;;10361836;28;20056;-46
2024/02/25 13:41:39;;;;;;;42.70;30.50;;;23.90;43.90;;;;;;10362799;28;20576;-49
2024/02/25 13:46:44;;;;;;;43.70;29.85;;;24.10;44.00;;;;;;10359779;28;20042;-47
2024/02/25 13:51:45;;;;;;;47.25;29.70;;;24.00;43.80;;;;;;10362506;28;20045;-47
2024/02/25 13:56:47;;;;;;;42.83;28.33;;;23.90;43.50;;;;;;10358543;28;20157;-50
2024/02/25 14:01:50;;;;;;;55.30;33.55;;;23.90;43.40;;;;;;10356456;28;20046;-47
2024/02/25 14:06:52;;;;;;;48.55;30.60;;;24.00;43.10;;;;;;10356547;28;20052;-47
2024/02/25 14:11:53;;;;;;;55.80;32.65;;;24.00;43.30;;;;;;10357403;28;20416;-46
2024/02/25 14:16:56;;;;;;;49.20;29.80;;;24.00;43.20;;;;;;10360824;28;20392;-48
2024/02/25 14:21:58;;;;;;;66.88;36.30;;;24.10;43.10;;;;;;10355062;28;20050;-52
2024/02/25 14:26:59;;;;;;;55.40;31.10;;;24.10;43.00;;;;;;10361367;28;20060;-48
2024/02/25 14:32:02;;;;;;;65.18;33.08;;;23.90;43.30;;;;;;10363308;28;20038;-47
2024/02/25 14:37:04;;;;;;;44.63;26.30;;;24.00;42.90;;;;;;10357733;28;20578;-47
2024/02/25 14:42:07;;;;;;;58.83;31.88;;;24.10;42.30;;;;;;10353369;28;20054;-50
2024/02/25 14:47:10;;;;;;;58.67;31.17;;;24.20;42.60;;;;;;10345335;28;20080;-47
2024/02/25 14:52:13;;;;;;;59.85;34.40;;;24.40;43.40;;;;;;10358598;28;20054;-49
2024/02/25 14:57:14;;;;;;;57.90;31.65;;;24.50;43.30;;;;;;10358016;28;20061;-46
2024/02/25 15:02:17;;;;;;;66.38;36.45;;;24.40;43.70;;;;;;10361418;28;20042;-48
2024/02/25 15:07:19;;;;;;;60.70;33.47;;;24.40;43.80;;;;;;10358334;28;20459;-46
2024/02/25 15:12:21;;;;;;;73.28;38.08;;;24.30;43.80;;;;;;10358124;28;20038;-46
2024/02/25 15:17:25;;;;;;;71.72;37.75;;;24.30;44.40;;;;;;10354167;28;20048;-50
2024/02/25 15:22:27;;;;;;;80.07;40.63;;;24.40;44.70;;;;;;10355713;28;20054;-47
2024/02/25 15:27:29;;;;;;;63.38;33.63;;;24.10;44.60;;;;;;10355831;28;20515;-52
2024/02/25 15:32:32;;;;;;;66.07;35.35;;;24.20;43.90;;;;;;10347732;28;20128;-46
2024/02/25 15:37:33;;;;;;;63.47;36.22;;;24.20;43.80;;;;;;10351756;28;20073;-49
2024/02/25 15:42:35;;;;;;;68.40;36.38;;;24.30;43.60;;;;;;10363855;28;20133;-49
2024/02/25 15:47:39;;;;;;;63.88;34.42;;;24.30;43.50;;;;;;10362407;28;20504;-46
2024/02/25 15:52:42;;;;;;;61.13;34.42;;;24.30;43.50;;;;;;10361590;28;20054;-47
2024/02/25 15:57:44;;;;;;;62.45;34.45;;;24.30;43.50;;;;;;10364523;28;20408;-51
2024/02/25 16:02:47;;;;;;;54.47;32.60;;;24.10;43.60;;;;;;10363543;28;20104;-47
2024/02/25 16:07:48;;;;;;;53.35;32.03;;;24.30;43.40;;;;;;10364025;28;20050;-50
2024/02/25 16:12:50;;;;;;;57.55;34.47;;;24.30;44.30;;;;;;10364547;28;20046;-50
2024/02/25 16:17:53;;;;;;;67.00;36.42;;;23.90;45.60;;;;;;10364405;28;20491;-47
2024/02/25 16:22:55;;;;;;;51.13;32.80;;;23.80;45.60;;;;;;10363690;28;20652;-47
2024/02/25 16:27:56;;;;;;;51.88;29.77;;;24.20;45.60;;;;;;10344218;28;20412;-53
2024/02/25 16:32:59;;;;;;;43.55;24.80;;;24.50;45.30;;;;;;10360943;28;20500;-53
2024/02/25 16:38:06;;;;;;;40.47;23.95;;;24.60;44.80;;;;;;10360822;28;20508;-53
2024/02/25 16:43:08;;;;;;;31.73;21.25;;;24.70;44.70;;;;;;10358107;28;20046;-50
2024/02/25 16:48:11;;;;;;;34.30;20.27;;;24.70;44.80;;;;;;10360899;28;20050;-48
2024/02/25 16:53:12;;;;;;;30.55;19.17;;;24.70;44.80;;;;;;10349731;28;20057;-55
2024/02/25 16:58:14;;;;;;;30.23;17.60;;;24.70;44.70;;;;;;10362673;28;20104;-52
2024/02/25 17:03:17;;;;;;;26.38;16.65;;;24.80;44.70;;;;;;10363041;28;20497;-49
2024/02/25 17:08:18;;;;;;;19.27;12.45;;;24.80;44.80;;;;;;10357306;28;20081;-51
2024/02/25 17:13:20;;;;;;;17.67;11.25;;;24.70;43.20;;;;;;10355928;28;20069;-47
2024/02/25 17:18:23;;;;;;;20.27;11.35;;;24.90;42.60;;;;;;10359834;28;20145;-52
2024/02/25 17:23:25;;;;;;;16.83;10.80;;;24.90;42.70;;;;;;10361379;28;20042;-51
2024/02/25 17:28:29;;;;;;;19.63;10.50;;;25.00;42.90;;;;;;10362536;28;20049;-51
2024/02/25 17:33:31;;;;;;;19.15;9.70;;;24.90;43.50;;;;;;10356821;28;20048;-54
2024/02/25 17:38:33;;;;;;;18.38;9.95;;;24.90;44.30;;;;;;10358648;28;20087;-51
2024/02/25 17:43:35;;;;;;;26.60;9.50;;;24.70;44.20;;;;;;10362342;28;20038;-52
2024/02/25 17:48:39;;;;;;;15.32;9.40;;;24.70;44.50;;;;;;10355837;28;20061;-53
2024/02/25 17:53:40;;;;;;;16.20;9.00;;;24.60;45.00;;;;;;10356553;28;20046;-50
2024/02/25 17:58:49;;;;;;;12.38;8.55;;;24.40;45.40;;;;;;10351034;28;20046;-52
2024/02/25 18:03:52;;;;;;;14.88;9.52;;;24.40;45.40;;;;;;10354374;28;20544;-51
2024/02/25 18:08:53;;;;;;;15.23;8.88;;;24.50;45.50;;;;;;10352473;28;20512;-52
2024/02/25 18:13:58;;;;;;;16.73;9.45;;;24.50;44.60;;;;;;10355101;28;20050;-47
2024/02/25 18:19:01;;;;;;;16.20;8.40;;;24.50;45.40;;;;;;10352211;28;20530;-51
2024/02/25 18:24:02;;;;;;;16.58;8.75;;;24.50;45.00;;;;;;10353668;28;20570;-53
2024/02/25 18:29:04;;;;;;;16.67;9.00;;;24.30;45.50;;;;;;10357293;28;20415;-48
2024/02/25 18:34:08;;;;;;;15.10;8.38;;;24.20;46.10;;;;;;10359586;28;20061;-51
2024/02/25 18:39:10;;;;;;;16.10;8.00;;;24.50;46.10;;;;;;10357252;28;20046;-49
2024/02/25 18:44:12;;;;;;;13.38;7.45;;;24.40;46.00;;;;;;10356293;28;20049;-55
2024/02/25 18:49:15;;;;;;;15.15;7.57;;;24.30;45.80;;;;;;10356704;28;20073;-47
2024/02/25 18:54:18;;;;;;;12.93;7.35;;;24.20;45.80;;;;;;10355092;28;20456;-49
2024/02/25 18:59:19;;;;;;;13.73;7.50;;;24.20;45.90;;;;;;10361149;28;20048;-51
2024/02/25 19:04:22;;;;;;;12.52;7.18;;;24.30;45.90;;;;;;10353981;28;20038;-49
2024/02/25 19:09:24;;;;;;;11.50;6.80;;;24.30;46.00;;;;;;10350468;28;20567;-51
2024/02/25 19:14:26;;;;;;;12.15;7.35;;;24.30;46.70;;;;;;10353679;28;20038;-48
2024/02/25 19:19:29;;;;;;;10.80;6.40;;;24.30;46.30;;;;;;10354604;28;20050;-50
2024/02/25 19:24:31;;;;;;;28.73;7.90;;;24.20;46.10;;;;;;10345504;28;20077;-49
2024/02/25 19:29:33;;;;;;;37.53;9.63;;;24.20;46.20;;;;;;10356210;28;20054;-49
2024/02/25 19:34:37;;;;;;;34.38;8.35;;;24.20;46.20;;;;;;10347144;28;20488;-47
2024/02/25 19:39:41;;;;;;;31.60;8.50;;;24.30;46.10;;;;;;10353413;28;20617;-51
2024/02/25 19:44:43;;;;;;;40.90;9.25;;;24.20;45.90;;;;;;10359044;28;20050;-50
2024/02/25 19:49:46;;;;;;;34.50;8.77;;;24.00;46.20;;;;;;10355055;28;20042;-49
2024/02/25 19:54:48;;;;;;;36.45;8.27;;;23.90;46.30;;;;;;10353438;28;20042;-56
2024/02/25 19:59:49;;;;;;;32.10;7.78;;;24.00;46.20;;;;;;10350297;28;20039;-54
2024/02/25 20:04:52;;;;;;;24.80;7.75;;;23.90;46.00;;;;;;10352504;28;20038;-53
2024/02/25 20:09:54;;;;;;;24.05;6.38;;;23.80;46.20;;;;;;10349130;28;20070;-53
2024/02/25 20:14:57;;;;;;;19.33;6.55;;;23.90;45.90;;;;;;10355668;28;20046;-51
2024/02/25 20:20:00;;;;;;;13.52;5.60;;;24.10;45.40;;;;;;10347146;28;20050;-53
2024/02/25 20:25:03;;;;;;;12.70;5.30;;;24.10;45.30;;;;;;10352144;28;20042;-53
2024/02/25 20:30:06;;;;;;;12.57;5.85;;;24.10;45.10;;;;;;10355135;28;20424;-54
2024/02/25 20:35:09;;;;;;;14.93;5.50;;;24.20;45.30;;;;;;10363217;28;20045;-54
2024/02/25 20:40:12;;;;;;;9.75;5.30;;;24.10;45.70;;;;;;10361212;28;20054;-53
2024/02/25 20:45:13;;;;;;;10.55;5.05;;;24.20;45.70;;;;;;10358726;28;20129;-50
2024/02/25 20:50:16;;;;;;;10.95;5.10;;;24.20;45.80;;;;;;10363255;28;20058;-55
2024/02/25 20:55:18;;;;;;;8.65;4.95;;;24.30;45.90;;;;;;10362945;28;20042;-52
2024/02/25 21:00:20;;;;;;;10.02;4.30;;;24.30;46.10;;;;;;10360352;28;20053;-52
2024/02/25 21:05:23;;;;;;;7.97;3.90;;;24.20;45.00;;;;;;10363829;28;20496;-52
2024/02/25 21:10:25;;;;;;;6.90;3.80;;;24.00;43.30;;;;;;10358989;28;20492;-56
2024/02/25 21:15:28;;;;;;;6.60;3.72;;;24.20;43.50;;;;;;10363742;28;20041;-53
2024/02/25 21:20:33;;;;;;;6.55;3.80;;;24.30;43.60;;;;;;10358806;28;20057;-52
2024/02/25 21:25:34;;;;;;;4.68;3.22;;;24.30;43.90;;;;;;10357249;28;20116;-52
2024/02/25 21:30:36;;;;;;;6.53;3.92;;;24.30;44.00;;;;;;10355404;28;20052;-55
2024/02/25 21:35:39;;;;;;;6.10;3.50;;;24.40;44.20;;;;;;10355235;28;20042;-52
2024/02/25 21:40:41;;;;;;;7.25;3.40;;;24.40;44.30;;;;;;10357285;28;20088;-53
2024/02/25 21:45:42;;;;;;;5.28;3.63;;;24.40;44.30;;;;;;10360265;28;20518;-50
2024/02/25 21:50:45;;;;;;;6.72;3.33;;;24.30;44.50;;;;;;10359665;28;20041;-52
2024/02/25 21:55:47;;;;;;;6.72;3.38;;;24.30;44.60;;;;;;10356275;28;20048;-49
2024/02/25 22:00:49;;;;;;;6.38;3.65;;;24.30;45.00;;;;;;10352729;28;20120;-51
2024/02/25 22:05:52;;;;;;;8.35;3.17;;;24.00;46.20;;;;;;10366727;28;20042;-53
2024/02/25 22:10:53;;;;;;;7.07;3.45;;;23.90;46.80;;;;;;10361617;28;20054;-55
2024/02/25 22:15:55;;;;;;;6.35;3.55;;;23.70;47.40;;;;;;10361291;28;20034;-51
2024/02/25 22:20:58;;;;;;;7.00;3.38;;;23.80;47.40;;;;;;10361839;28;20049;-49
2024/02/25 22:25:59;;;;;;;12.07;3.13;;;23.80;47.40;;;;;;10358195;28;20048;-51
2024/02/25 22:31:01;;;;;;;6.18;3.30;;;24.10;46.80;;;;;;10351912;28;20054;-52
2024/02/25 22:36:05;;;;;;;5.25;3.50;;;24.30;45.90;;;;;;10350713;28;20053;-52
2024/02/25 22:41:06;;;;;;;5.93;3.00;;;24.20;45.50;;;;;;10348854;28;20052;-53
2024/02/25 22:46:09;;;;;;;4.00;2.83;;;24.10;45.50;;;;;;10351419;28;20145;-52
2024/02/25 22:51:12;;;;;;;5.32;2.97;;;23.90;45.50;;;;;;10361944;28;20042;-53
2024/02/25 22:56:16;;;;;;;4.65;3.03;;;23.80;45.50;;;;;;10362009;28;20045;-51
2024/02/25 23:01:20;;;;;;;5.20;2.95;;;23.70;45.50;;;;;;10355899;28;20496;-53
2024/02/25 23:06:23;;;;;;;3.92;2.88;;;23.50;45.80;;;;;;10355056;28;20054;-54
2024/02/25 23:11:24;;;;;;;4.43;2.75;;;23.60;45.60;;;;;;10355998;28;20504;-52
2024/02/25 23:16:26;;;;;;;4.65;2.50;;;23.50;45.60;;;;;;10358139;28;20072;-49
2024/02/25 23:21:29;;;;;;;3.58;2.67;;;23.40;45.60;;;;;;10358683;28;20104;-54
2024/02/25 23:26:30;;;;;;;4.25;2.85;;;23.40;45.60;;;;;;10354363;28;20042;-53
2024/02/25 23:31:32;;;;;;;4.63;2.80;;;23.30;45.50;;;;;;10360013;28;20050;-54
2024/02/25 23:36:35;;;;;;;3.45;2.33;;;23.30;45.60;;;;;;10360978;28;20141;-48
2024/02/25 23:41:36;;;;;;;3.42;2.63;;;23.30;45.40;;;;;;10357103;28;20054;-51
2024/02/25 23:46:38;;;;;;;3.10;2.30;;;23.10;45.50;;;;;;10349525;28;20054;-51
2024/02/25 23:51:41;;;;;;;3.33;2.55;;;23.20;45.30;;;;;;10345584;28;20050;-53
2024/02/25 23:56:42;;;;;;;5.25;2.83;;;23.20;45.30;;;;;;10349905;28;20554;-51
